createdAt,value
2023-04-20T00:07:48.784Z,10.90
2023-04-20T00:17:54.172Z,11.20
2023-04-20T00:27:59.908Z,11.00
2023-04-20T00:38:04.120Z,11.30
2023-04-20T00:48:08.155Z,11.20
2023-04-20T00:58:12.973Z,11.20
2023-04-20T01:08:16.493Z,11.20
2023-04-20T01:18:21.181Z,11.60
2023-04-20T01:28:28.666Z,11.90
2023-04-20T01:38:34.869Z,11.70
2023-04-20T01:48:41.063Z,11.10
2023-04-20T01:58:48.138Z,11.00
2023-04-20T02:08:52.839Z,11.40
2023-04-20T02:18:56.786Z,13.30
2023-04-20T02:29:02.298Z,16.20
2023-04-20T02:39:07.897Z,12.00
2023-04-20T02:49:11.465Z,13.30
2023-04-20T02:59:20.696Z,13.40
2023-04-20T03:09:52.621Z,12.10
2023-04-20T03:19:59.194Z,12.00
2023-04-20T03:30:02.847Z,11.50
2023-04-20T03:40:11.382Z,11.60
2023-04-20T03:50:15.013Z,12.80
2023-04-20T04:00:23.948Z,13.00
2023-04-20T04:10:34.158Z,11.60
2023-04-20T04:20:37.969Z,11.00
2023-04-20T04:30:42.879Z,11.80
2023-04-20T04:40:47.034Z,12.00
2023-04-20T04:50:50.849Z,11.10
2023-04-20T05:00:54.434Z,11.30
2023-04-20T05:11:01.664Z,10.70
2023-04-20T05:21:05.370Z,10.70
2023-04-20T05:31:08.949Z,10.60
2023-04-20T05:41:14.694Z,13.40
2023-04-20T05:51:19.163Z,12.60
2023-04-20T06:01:22.941Z,12.00
2023-04-20T06:11:26.709Z,10.40
2023-04-20T06:21:34.900Z,10.40
2023-04-20T06:31:39.750Z,10.70
2023-04-20T06:41:45.608Z,11.10
2023-04-20T06:51:51.273Z,10.70
2023-04-20T07:01:54.907Z,10.10
2023-04-20T07:11:59.067Z,10.50
2023-04-20T07:22:05.071Z,10.50
2023-04-20T07:32:08.694Z,10.40
2023-04-20T07:42:12.383Z,10.60
2023-04-20T07:52:18.547Z,10.90
2023-04-20T08:02:22.323Z,12.60
2023-04-20T08:12:27.448Z,11.00
2023-04-20T08:22:33.890Z,9.70
2023-04-20T08:32:39.684Z,10.10
2023-04-20T08:42:43.454Z,9.00
2023-04-20T08:52:47.188Z,9.40
2023-04-20T09:02:54.079Z,9.50
2023-04-20T09:12:57.715Z,9.10
2023-04-20T09:23:17.283Z,9.00
2023-04-20T09:33:28.703Z,9.00
2023-04-20T09:43:33.741Z,9.20
2023-04-20T09:53:41.245Z,9.40
2023-04-20T10:03:46.146Z,8.50
2023-04-20T10:13:52.035Z,8.80
2023-04-20T10:23:59.130Z,9.10
2023-04-20T10:34:02.710Z,9.20
2023-04-20T11:02:57.632Z,11.90
2023-04-20T11:13:01.646Z,11.90
2023-04-20T11:23:06.190Z,10.80
2023-04-20T11:33:11.131Z,11.10
2023-04-20T11:43:15.388Z,11.80
2023-04-20T11:53:19.021Z,11.50
2023-04-20T12:03:23.020Z,12.00
2023-04-20T12:13:26.813Z,12.00
2023-04-20T12:23:30.850Z,11.90
2023-04-20T12:33:34.449Z,11.50
2023-04-20T12:43:37.978Z,11.40
2023-04-20T12:53:42.201Z,11.30
2023-04-20T13:03:46.514Z,11.50
2023-04-20T13:13:50.442Z,11.10
2023-04-20T13:23:54.871Z,11.30
2023-04-20T13:33:59.923Z,11.50
2023-04-20T13:44:03.862Z,10.80
2023-04-20T13:54:07.741Z,10.20
2023-04-20T14:04:11.590Z,10.10
2023-04-20T14:14:15.504Z,10.20
2023-04-20T14:24:19.784Z,9.70
2023-04-20T14:34:23.548Z,11.50
2023-04-20T14:44:27.118Z,11.30
2023-04-20T14:54:30.752Z,11.60
2023-04-20T15:04:34.507Z,12.60
2023-04-20T15:14:38.343Z,12.00
2023-04-20T15:24:42.799Z,12.80
2023-04-20T15:34:46.392Z,14.20
2023-04-20T15:44:50.053Z,12.90
2023-04-20T15:54:53.691Z,13.50
2023-04-20T16:04:57.573Z,12.50
2023-04-20T16:15:02.413Z,12.30
2023-04-20T16:25:07.089Z,11.80
2023-04-20T16:35:10.844Z,10.90
2023-04-20T16:45:14.750Z,11.70
2023-04-20T16:55:18.442Z,10.80
2023-04-20T17:05:22.155Z,10.30
2023-04-20T17:15:26.253Z,10.70
2023-04-20T17:25:29.795Z,14.10
2023-04-20T17:35:34.082Z,11.00
2023-04-20T17:45:39.515Z,16.30
2023-04-20T17:55:43.229Z,17.90
2023-04-20T18:05:47.096Z,20.00
2023-04-20T18:15:51.004Z,17.70
2023-04-20T18:25:54.672Z,19.50
2023-04-20T18:35:58.288Z,23.60
2023-04-20T18:46:01.917Z,22.60
2023-04-20T18:56:05.484Z,33.80
2023-04-20T19:06:09.112Z,25.60
2023-04-20T19:16:13.354Z,23.90
2023-04-20T19:26:18.276Z,35.90
2023-04-20T19:36:21.917Z,26.10
2023-04-20T19:46:25.692Z,41.50
2023-04-20T19:56:29.368Z,33.40
2023-04-20T20:06:33.087Z,25.60
2023-04-20T20:16:36.679Z,17.10
2023-04-20T20:26:40.364Z,17.50
2023-04-20T20:36:46.004Z,15.30
2023-04-20T20:46:49.565Z,13.40
2023-04-20T20:56:53.523Z,12.60
2023-04-20T21:06:57.286Z,16.60
2023-04-20T21:17:01.315Z,14.10
2023-04-20T21:27:05.343Z,17.40
2023-04-20T21:37:09.533Z,22.10
2023-04-20T21:47:13.373Z,16.00
2023-04-20T21:57:17.251Z,21.30
2023-04-20T22:07:21.376Z,26.00
2023-04-20T22:17:25.220Z,15.70
2023-04-20T22:27:29.308Z,15.00
2023-04-20T22:37:33.158Z,15.90
2023-04-20T22:47:38.009Z,16.30
2023-04-20T22:57:41.891Z,13.80
2023-04-20T23:07:45.836Z,14.90
2023-04-20T23:17:49.528Z,14.10
2023-04-20T23:27:53.279Z,13.50
2023-04-20T23:37:58.375Z,13.50
2023-04-20T23:48:02.118Z,13.40
2023-04-20T23:58:06.228Z,14.00
